createdAt,value
2019-05-18T00:00:41.752Z,19.90
2019-05-18T00:03:08.086Z,19.80
2019-05-18T00:05:34.124Z,20.20
2019-05-18T00:08:00.221Z,20.90
2019-05-18T00:10:26.300Z,21.00
2019-05-18T00:12:52.671Z,20.20
2019-05-18T00:15:18.819Z,19.80
2019-05-18T00:17:44.908Z,20.50
2019-05-18T00:20:11.061Z,20.90
2019-05-18T00:22:37.902Z,20.20
2019-05-18T00:25:06.163Z,21.00
2019-05-18T00:27:32.611Z,20.40
2019-05-18T00:29:58.660Z,20.10
2019-05-18T00:39:44.052Z,20.50
2019-05-18T00:42:10.092Z,20.60
2019-05-18T00:44:36.141Z,20.50
2019-05-18T00:47:02.536Z,20.60
2019-05-18T00:49:28.594Z,20.40
2019-05-18T00:51:54.975Z,20.90
2019-05-18T00:54:21.530Z,20.80
2019-05-18T01:01:42.699Z,19.90
2019-05-18T01:04:08.772Z,20.90
2019-05-18T01:06:35.104Z,20.40
2019-05-18T01:09:01.159Z,20.30
2019-05-18T01:13:53.759Z,20.50
2019-05-18T01:16:19.812Z,20.80
2019-05-18T01:18:45.909Z,20.40
2019-05-18T01:23:38.387Z,20.50
2019-05-18T01:26:04.827Z,20.30
2019-05-18T01:28:30.884Z,20.70
2019-05-18T01:33:23.638Z,19.70
2019-05-18T01:35:49.750Z,20.10
2019-05-18T01:38:15.802Z,20.10
2019-05-18T01:40:41.892Z,20.30
2019-05-18T01:43:07.943Z,20.60
2019-05-18T01:48:12.619Z,19.90
2019-05-18T01:50:28.675Z,19.70
2019-05-18T01:52:55.076Z,20.20
2019-05-18T01:55:21.496Z,20.70
2019-05-18T01:57:47.954Z,19.70
2019-05-18T02:00:15.984Z,19.60
2019-05-18T02:12:30.519Z,20.60
2019-05-18T02:17:23.283Z,19.90
2019-05-18T02:22:15.784Z,19.80
2019-05-18T02:24:41.829Z,19.70
2019-05-18T02:27:07.939Z,19.70
2019-05-18T02:32:00.773Z,19.90
2019-05-18T02:34:26.827Z,20.60
2019-05-18T02:36:53.200Z,19.40
2019-05-18T02:39:19.297Z,19.40
2019-05-18T02:41:45.659Z,20.10
2019-05-18T02:44:11.725Z,20.40
2019-05-18T02:46:38.216Z,19.50
2019-05-18T02:49:04.277Z,20.30
2019-05-18T02:56:23.532Z,20.60
2019-05-18T02:58:49.619Z,19.40
2019-05-18T03:01:15.668Z,19.40
2019-05-18T03:03:41.727Z,19.40
2019-05-18T03:08:34.597Z,19.80
2019-05-18T03:11:00.681Z,19.50
2019-05-18T03:20:46.629Z,20.30
2019-05-18T03:28:06.719Z,19.80
2019-05-18T03:32:59.750Z,20.50
2019-05-18T03:35:26.142Z,19.30
2019-05-18T03:37:52.223Z,19.40
2019-05-18T03:40:18.615Z,19.50
2019-05-18T03:42:44.707Z,19.60
2019-05-18T03:45:12.057Z,20.20
2019-05-18T03:50:08.069Z,20.30
2019-05-18T03:55:00.564Z,19.60
2019-05-18T03:57:26.903Z,19.50
2019-05-18T03:59:53.349Z,19.80
2019-05-18T04:04:45.841Z,19.40
2019-05-18T04:07:12.321Z,19.70
2019-05-18T04:09:38.383Z,19.20
2019-05-18T04:14:31.082Z,19.30
2019-05-18T04:16:58.153Z,19.20
2019-05-18T04:19:24.344Z,19.20
2019-05-18T04:21:50.387Z,19.40
2019-05-18T04:24:16.477Z,20.40
2019-05-18T04:29:09.298Z,20.00
2019-05-18T04:34:02.481Z,20.00
2019-05-18T04:36:30.469Z,19.20
2019-05-18T04:38:56.520Z,19.50
2019-05-18T04:43:49.029Z,20.40
2019-05-18T04:46:15.084Z,19.30
2019-05-18T04:51:08.514Z,19.90
2019-05-18T04:53:34.561Z,19.70
2019-05-18T04:56:00.644Z,19.40
2019-05-18T05:03:19.574Z,20.20
2019-05-18T05:05:45.666Z,19.20
2019-05-18T05:08:11.712Z,20.00
2019-05-18T05:10:37.760Z,20.20
2019-05-18T05:15:30.267Z,20.00
2019-05-18T05:17:56.623Z,20.00
2019-05-18T05:20:22.708Z,20.10
2019-05-18T05:22:48.797Z,19.60
2019-05-18T05:25:14.951Z,19.80
2019-05-18T05:30:09.678Z,20.00
2019-05-18T05:32:36.026Z,19.80
2019-05-18T05:35:03.651Z,19.80
2019-05-18T05:37:29.795Z,19.90
2019-05-18T05:39:55.968Z,19.70
2019-05-18T05:42:22.064Z,19.60
2019-05-18T05:47:14.844Z,20.40
2019-05-18T05:52:07.888Z,19.60
2019-05-18T05:54:34.227Z,20.50
2019-05-18T05:59:27.044Z,19.70
2019-05-18T06:04:19.509Z,19.60
2019-05-18T06:06:45.597Z,19.30
2019-05-18T06:09:11.997Z,20.50
2019-05-18T06:11:38.079Z,19.30
2019-05-18T06:16:30.594Z,20.20
2019-05-18T06:18:56.901Z,19.30
2019-05-18T06:21:22.992Z,19.90
2019-05-18T06:23:49.043Z,19.90
2019-05-18T06:26:15.122Z,19.70
2019-05-18T06:28:41.232Z,19.60
2019-05-18T06:31:07.282Z,19.50
2019-05-18T06:33:33.368Z,20.30
2019-05-18T06:35:59.416Z,19.50
2019-05-18T06:38:25.504Z,20.10
2019-05-18T06:45:45.093Z,20.70
2019-05-18T06:50:37.960Z,20.70
2019-05-18T06:53:04.044Z,19.60
2019-05-18T06:55:31.348Z,20.40
2019-05-18T06:57:59.515Z,20.80
2019-05-18T07:00:26.671Z,20.80
2019-05-18T07:05:19.542Z,19.60
2019-05-18T07:07:45.592Z,20.00
2019-05-18T07:12:38.784Z,20.10
2019-05-18T07:15:08.640Z,19.90
2019-05-18T07:22:27.928Z,20.30
2019-05-18T07:24:54.052Z,20.50
2019-05-18T07:27:20.104Z,20.60
2019-05-18T07:29:46.496Z,21.30
2019-05-18T07:34:39.377Z,20.00
2019-05-18T07:37:05.709Z,20.80
2019-05-18T07:41:58.217Z,20.20
2019-05-18T07:44:24.272Z,20.70
2019-05-18T07:46:50.629Z,20.40
2019-05-18T07:49:16.724Z,20.10
2019-05-18T07:51:42.792Z,20.10
2019-05-18T07:54:08.976Z,20.20
2019-05-18T07:56:35.321Z,21.00
2019-05-18T07:59:01.369Z,20.80
2019-05-18T08:01:27.461Z,20.60
2019-05-18T08:03:53.555Z,20.70
2019-05-18T08:06:19.604Z,19.00
2019-05-18T08:08:45.945Z,21.20
2019-05-18T08:13:38.489Z,21.20
2019-05-18T08:16:04.833Z,22.40
2019-05-18T08:20:57.340Z,21.00
2019-05-18T08:25:50.189Z,21.60
2019-05-18T08:28:16.262Z,21.50
2019-05-18T08:30:42.474Z,21.70
2019-05-18T08:33:08.688Z,21.10
2019-05-18T08:35:35.593Z,21.30
2019-05-18T08:38:02.039Z,21.10
2019-05-18T08:40:28.168Z,21.50
2019-05-18T08:45:21.108Z,22.00
2019-05-18T08:47:47.252Z,21.40
2019-05-18T08:50:13.557Z,21.60
2019-05-18T08:52:39.980Z,21.70
2019-05-18T08:55:07.633Z,20.80
2019-05-18T09:00:01.225Z,24.40
2019-05-18T09:02:27.287Z,21.60
2019-05-18T09:04:53.783Z,21.10
2019-05-18T09:07:19.835Z,22.20
2019-05-18T09:09:46.139Z,21.00
2019-05-18T09:12:12.463Z,21.40
2019-05-18T09:14:38.517Z,21.30
2019-05-18T09:17:05.020Z,21.10
2019-05-18T09:21:57.555Z,21.40
2019-05-18T09:24:23.913Z,22.00
2019-05-18T09:29:16.775Z,21.70
2019-05-18T09:31:42.903Z,22.20
2019-05-18T09:34:08.954Z,22.50
2019-05-18T09:36:35.040Z,21.30
2019-05-18T09:39:01.376Z,21.90
2019-05-18T09:41:27.705Z,22.10
2019-05-18T09:43:53.762Z,22.10
2019-05-18T09:48:46.568Z,21.50
2019-05-18T09:51:12.924Z,21.70
2019-05-18T09:53:50.762Z,21.30
2019-05-18T09:58:34.164Z,22.50
2019-05-18T10:05:54.082Z,21.90
2019-05-18T10:10:46.841Z,22.30
2019-05-18T10:13:12.887Z,21.50
2019-05-18T10:15:39.293Z,21.30
2019-05-18T10:18:05.344Z,22.00
2019-05-18T10:23:11.826Z,21.80
2019-05-18T10:25:26.106Z,21.30
2019-05-18T10:27:52.149Z,22.20
2019-05-18T10:30:19.289Z,21.50
2019-05-18T10:32:45.648Z,21.40
2019-05-18T10:35:14.345Z,21.80
2019-05-18T10:40:09.360Z,21.80
2019-05-18T10:42:35.908Z,21.50
2019-05-18T10:45:06.047Z,22.10
2019-05-18T10:47:32.103Z,21.60
2019-05-18T10:49:58.188Z,21.70
2019-05-18T10:52:24.244Z,21.60
2019-05-18T10:57:17.174Z,22.40
2019-05-18T11:02:10.104Z,22.40
2019-05-18T11:04:36.658Z,22.50
2019-05-18T11:07:02.808Z,22.60
2019-05-18T11:11:55.314Z,21.50
2019-05-18T11:14:21.369Z,22.20
2019-05-18T11:19:13.871Z,21.40
2019-05-18T11:21:40.231Z,21.50
2019-05-18T11:24:06.568Z,22.10
2019-05-18T11:26:32.918Z,22.10
2019-05-18T11:28:59.010Z,21.90
2019-05-18T11:31:25.131Z,22.10
2019-05-18T11:33:51.472Z,21.40
2019-05-18T11:36:17.804Z,21.50
2019-05-18T11:38:44.136Z,22.10
2019-05-18T11:43:36.959Z,22.30
2019-05-18T11:46:03.026Z,21.80
2019-05-18T11:50:55.624Z,21.70
2019-05-18T11:53:22.375Z,22.00
2019-05-18T11:58:15.290Z,22.50
2019-05-18T12:03:07.889Z,22.30
2019-05-18T12:05:33.941Z,21.90
2019-05-18T12:08:00.033Z,21.80
2019-05-18T12:10:26.080Z,22.60
2019-05-18T12:12:52.136Z,22.30
2019-05-18T12:15:20.720Z,21.30
2019-05-18T12:17:47.072Z,21.40
2019-05-18T12:25:08.500Z,21.50
2019-05-18T12:27:34.927Z,21.10
2019-05-18T12:30:01.005Z,21.50
2019-05-18T12:32:27.104Z,21.70
2019-05-18T12:34:53.508Z,21.40
2019-05-18T12:37:22.584Z,22.70
2019-05-18T12:39:50.459Z,22.50
2019-05-18T12:42:16.550Z,21.60
2019-05-18T12:44:43.052Z,22.60
2019-05-18T12:49:35.560Z,21.60
2019-05-18T12:52:01.653Z,22.10
2019-05-18T12:54:33.987Z,21.60
2019-05-18T12:56:55.764Z,22.40
2019-05-18T12:59:21.852Z,21.80
2019-05-18T13:01:47.903Z,22.60
2019-05-18T13:04:13.956Z,22.80
2019-05-18T13:06:40.040Z,22.40
2019-05-18T13:11:33.760Z,21.70
2019-05-18T13:16:26.373Z,22.10
2019-05-18T13:18:52.667Z,22.10
2019-05-18T13:23:45.461Z,22.60
2019-05-18T13:26:11.516Z,22.40
2019-05-18T13:33:30.550Z,21.90
2019-05-18T13:35:56.984Z,22.50
2019-05-18T13:38:23.308Z,23.00
2019-05-18T13:40:49.401Z,22.80
2019-05-18T13:43:16.067Z,22.00
2019-05-18T13:45:42.509Z,22.90
2019-05-18T13:50:35.264Z,22.90
2019-05-18T13:53:01.363Z,22.10
2019-05-18T13:57:54.104Z,22.80
2019-05-18T14:02:47.384Z,21.80
2019-05-18T14:07:40.790Z,23.10
2019-05-18T14:10:12.082Z,23.00
2019-05-18T14:12:36.937Z,23.10
2019-05-18T14:15:05.964Z,22.30
2019-05-18T14:17:32.093Z,22.70
2019-05-18T14:19:58.189Z,22.90
2019-05-18T14:22:24.232Z,22.70
2019-05-18T14:24:50.328Z,22.00
2019-05-18T14:29:43.193Z,22.70
2019-05-18T14:32:11.087Z,23.10
2019-05-18T14:34:37.327Z,22.10
2019-05-18T14:37:03.919Z,21.80
2019-05-18T14:39:30.258Z,22.50
2019-05-18T14:44:23.096Z,22.40
2019-05-18T14:46:49.969Z,23.30
2019-05-18T14:49:16.395Z,22.80
2019-05-18T14:51:42.453Z,23.10
2019-05-18T14:59:01.761Z,22.70
2019-05-18T15:03:54.264Z,22.80
2019-05-18T15:08:47.080Z,22.90
2019-05-18T15:11:13.368Z,23.10
2019-05-18T15:13:39.453Z,22.40
2019-05-18T15:16:05.828Z,23.20
2019-05-18T15:18:31.873Z,23.10
2019-05-18T15:20:57.955Z,22.80
2019-05-18T15:23:24.302Z,22.30
2019-05-18T15:25:51.421Z,22.40
2019-05-18T15:28:18.292Z,22.50
2019-05-18T15:30:44.619Z,23.10
2019-05-18T15:33:10.752Z,22.10
2019-05-18T15:35:36.804Z,21.90
2019-05-18T15:40:29.324Z,22.60
2019-05-18T15:42:55.780Z,22.10
2019-05-18T15:45:24.667Z,22.10
2019-05-18T15:50:18.326Z,22.20
2019-05-18T16:00:07.753Z,23.10
2019-05-18T16:02:34.200Z,21.90
2019-05-18T16:05:01.249Z,23.10
2019-05-18T16:09:55.045Z,22.90
2019-05-18T16:12:21.096Z,23.10
2019-05-18T16:17:14.204Z,23.10
2019-05-18T16:24:33.568Z,22.70
2019-05-18T16:26:59.660Z,21.90
2019-05-18T16:29:25.717Z,23.20
2019-05-18T16:36:44.681Z,22.90
2019-05-18T16:39:11.275Z,22.90
2019-05-18T16:41:37.335Z,22.50
2019-05-18T16:44:03.524Z,22.60
2019-05-18T16:46:29.873Z,23.10
2019-05-18T16:48:56.296Z,22.50
2019-05-18T16:51:22.731Z,23.10
2019-05-18T16:53:50.281Z,22.30
2019-05-18T16:56:17.052Z,22.30
2019-05-18T17:01:09.525Z,22.70
2019-05-18T17:03:35.845Z,22.80
2019-05-18T17:06:02.081Z,22.60
2019-05-18T17:08:28.217Z,23.10
2019-05-18T17:10:54.592Z,22.20
2019-05-18T17:18:13.808Z,23.40
2019-05-18T17:20:42.497Z,22.50
2019-05-18T17:23:08.549Z,22.50
2019-05-18T17:25:34.663Z,22.20
2019-05-18T17:28:00.800Z,21.80
2019-05-18T17:32:53.317Z,22.60
2019-05-18T17:35:19.400Z,23.10
2019-05-18T17:37:45.755Z,21.70
2019-05-18T17:42:39.265Z,22.50
2019-05-18T17:45:06.859Z,22.90
2019-05-18T17:47:32.946Z,22.30
2019-05-18T17:52:25.731Z,22.10
2019-05-18T17:54:52.020Z,21.70
2019-05-18T17:57:18.073Z,21.90
2019-05-18T18:02:11.088Z,22.60
2019-05-18T18:04:37.139Z,22.60
2019-05-18T18:07:03.560Z,22.70
2019-05-18T18:09:29.892Z,21.70
2019-05-18T18:11:56.425Z,22.50
2019-05-18T18:14:22.760Z,22.30
2019-05-18T18:19:15.636Z,22.40
2019-05-18T18:24:08.704Z,22.80
2019-05-18T18:26:34.751Z,22.90
2019-05-18T18:31:29.173Z,21.80
2019-05-18T18:33:55.304Z,22.00
2019-05-18T18:36:21.367Z,22.20
2019-05-18T18:38:47.428Z,22.80
2019-05-18T18:41:13.516Z,21.60
2019-05-18T18:46:06.832Z,22.50
2019-05-18T18:48:32.884Z,22.40
2019-05-18T18:50:59.240Z,22.00
2019-05-18T18:55:51.721Z,22.00
2019-05-18T18:58:17.815Z,21.40
2019-05-18T19:00:43.856Z,21.40
2019-05-18T19:03:09.943Z,22.80
2019-05-18T19:05:36.005Z,21.90
2019-05-18T19:08:02.106Z,21.70
2019-05-18T19:10:28.157Z,21.60
2019-05-18T19:12:54.253Z,21.90
2019-05-18T19:20:13.599Z,22.30
2019-05-18T19:22:39.740Z,22.30
2019-05-18T19:27:32.553Z,21.80
2019-05-18T19:29:58.977Z,21.90
2019-05-18T19:34:51.904Z,21.70
2019-05-18T19:37:18.271Z,21.50
2019-05-18T19:39:44.628Z,21.90
2019-05-18T19:47:03.589Z,21.40
2019-05-18T19:51:56.196Z,21.90
2019-05-18T19:56:48.723Z,22.10
2019-05-18T19:59:15.148Z,21.80
2019-05-18T20:01:41.196Z,21.90
2019-05-18T20:04:07.614Z,21.90
2019-05-18T20:06:33.659Z,22.00
2019-05-18T20:08:59.750Z,21.90
2019-05-18T20:21:12.321Z,21.60
2019-05-18T20:50:31.002Z,21.50
2019-05-18T21:02:43.008Z,21.90
2019-05-18T21:24:44.091Z,22.20
2019-05-18T21:41:49.048Z,22.20
2019-05-18T21:56:29.122Z,21.40
2019-05-18T21:59:10.134Z,21.40
2019-05-18T22:01:23.844Z,21.40
2019-05-18T22:11:09.332Z,21.80
2019-05-18T22:20:55.206Z,21.20
2019-05-18T22:35:34.081Z,21.30
2019-05-18T22:42:56.143Z,21.60
